createdAt,value
2019-03-02T00:00:07.888Z,6.91
2019-03-02T00:01:09.698Z,6.79
2019-03-02T00:02:07.826Z,6.80
2019-03-02T00:03:07.756Z,6.79
2019-03-02T00:04:10.130Z,6.81
2019-03-02T00:05:07.681Z,6.81
2019-03-02T00:06:07.624Z,6.80
2019-03-02T00:07:07.965Z,6.85
2019-03-02T00:08:07.544Z,6.92
2019-03-02T00:09:07.500Z,6.92
2019-03-02T00:10:10.021Z,6.98
2019-03-02T00:11:07.419Z,6.89
2019-03-02T00:12:07.367Z,6.92
2019-03-02T00:13:08.617Z,6.94
2019-03-02T00:14:07.281Z,6.94
2019-03-02T00:15:07.238Z,6.98
2019-03-02T00:16:07.566Z,7.02
2019-03-02T00:17:07.171Z,6.91
2019-03-02T00:18:07.137Z,6.92
2019-03-02T00:19:07.904Z,6.92
2019-03-02T00:20:07.014Z,6.94
2019-03-02T00:21:06.972Z,6.88
2019-03-02T00:22:07.711Z,6.84
2019-03-02T00:23:06.910Z,6.88
2019-03-02T00:24:06.864Z,6.94
2019-03-02T00:25:06.794Z,6.94
2019-03-02T00:26:10.302Z,6.87
2019-03-02T00:27:06.712Z,6.98
2019-03-02T00:28:06.696Z,6.95
2019-03-02T00:29:07.771Z,6.99
2019-03-02T00:30:06.583Z,7.02
2019-03-02T00:31:06.537Z,6.98
2019-03-02T00:32:09.511Z,6.97
2019-03-02T00:33:06.441Z,6.87
2019-03-02T00:34:06.404Z,6.98
2019-03-02T00:35:07.267Z,6.98
2019-03-02T00:36:06.320Z,6.88
2019-03-02T00:37:06.279Z,7.02
2019-03-02T00:38:08.809Z,7.03
2019-03-02T00:39:06.182Z,6.98
2019-03-02T00:40:06.169Z,7.02
2019-03-02T00:41:06.919Z,6.98
2019-03-02T00:42:06.067Z,7.02
2019-03-02T00:43:06.058Z,6.95
2019-03-02T00:44:05.961Z,6.98
2019-03-02T00:45:05.941Z,6.94
2019-03-02T00:46:05.879Z,7.06
2019-03-02T00:47:05.832Z,7.06
2019-03-02T00:48:07.523Z,6.99
2019-03-02T00:49:05.750Z,6.98
2019-03-02T00:50:05.735Z,6.98
2019-03-02T00:51:07.973Z,6.98
2019-03-02T00:52:05.618Z,6.98
2019-03-02T00:53:05.569Z,6.87
2019-03-02T00:54:07.733Z,6.95
2019-03-02T00:55:05.515Z,6.99
2019-03-02T00:56:07.866Z,7.02
2019-03-02T00:57:05.398Z,6.98
2019-03-02T00:58:05.348Z,6.99
2019-03-02T00:59:05.311Z,7.03
2019-03-02T01:00:05.306Z,6.89
2019-03-02T01:01:05.232Z,6.98
2019-03-02T01:02:05.635Z,6.95
2019-03-02T01:03:05.136Z,6.98
2019-03-02T01:04:05.114Z,6.94
2019-03-02T01:05:05.049Z,6.99
2019-03-02T01:06:05.029Z,6.95
2019-03-02T01:07:04.955Z,7.06
2019-03-02T01:08:04.919Z,6.88
2019-03-02T01:09:07.879Z,6.98
2019-03-02T01:10:04.843Z,6.99
2019-03-02T01:11:04.813Z,6.95
2019-03-02T01:12:05.836Z,6.99
2019-03-02T01:13:04.700Z,6.94
2019-03-02T01:14:04.682Z,7.03
2019-03-02T01:15:05.174Z,6.97
2019-03-02T01:16:04.562Z,7.06
2019-03-02T01:17:04.518Z,7.09
2019-03-02T01:18:06.612Z,6.97
2019-03-02T01:19:04.453Z,6.95
2019-03-02T01:20:04.400Z,6.91
2019-03-02T01:21:05.075Z,6.95
2019-03-02T01:22:04.316Z,6.98
2019-03-02T01:23:04.261Z,6.98
2019-03-02T01:24:04.542Z,6.98
2019-03-02T01:25:04.166Z,6.97
2019-03-02T01:26:04.138Z,6.95
2019-03-02T01:27:04.089Z,6.99
2019-03-02T01:28:06.664Z,6.95
2019-03-02T01:29:03.994Z,7.10
2019-03-02T01:30:03.987Z,6.95
2019-03-02T01:31:05.210Z,6.98
2019-03-02T01:32:03.876Z,6.95
2019-03-02T01:33:03.870Z,6.94
2019-03-02T01:34:04.756Z,7.10
2019-03-02T01:35:03.765Z,7.07
2019-03-02T01:36:03.686Z,6.98
2019-03-02T01:37:04.791Z,7.06
2019-03-02T01:38:03.638Z,6.98
2019-03-02T01:39:03.554Z,6.92
2019-03-02T01:40:04.906Z,6.98
2019-03-02T01:41:03.485Z,6.98
2019-03-02T01:42:03.438Z,6.99
2019-03-02T01:43:04.907Z,7.02
2019-03-02T01:44:03.378Z,6.98
2019-03-02T01:45:03.305Z,6.98
2019-03-02T01:46:04.529Z,6.94
2019-03-02T01:47:03.221Z,6.99
2019-03-02T01:48:03.185Z,6.95
2019-03-02T01:49:03.118Z,6.89
2019-03-02T01:50:03.109Z,6.87
2019-03-02T01:51:03.065Z,6.97
2019-03-02T01:52:03.013Z,6.89
2019-03-02T01:53:02.952Z,6.94
2019-03-02T01:54:02.924Z,6.87
2019-03-02T01:55:02.886Z,6.89
2019-03-02T01:56:06.031Z,6.91
2019-03-02T01:57:02.780Z,6.89
2019-03-02T01:58:02.734Z,6.94
2019-03-02T01:59:03.947Z,6.92
2019-03-02T02:00:02.655Z,6.91
2019-03-02T02:01:02.600Z,6.94
2019-03-02T02:02:02.586Z,6.88
2019-03-02T02:03:02.518Z,6.79
2019-03-02T02:04:02.491Z,6.80
2019-03-02T02:05:02.462Z,6.80
2019-03-02T02:06:03.839Z,6.89
2019-03-02T02:07:02.362Z,6.85
2019-03-02T02:08:02.297Z,6.84
2019-03-02T02:09:05.791Z,6.84
2019-03-02T02:10:02.203Z,6.79
2019-03-02T02:11:02.173Z,6.69
2019-03-02T02:12:02.121Z,6.69
2019-03-02T02:13:02.862Z,6.70
2019-03-02T02:14:02.077Z,6.85
2019-03-02T02:15:01.994Z,6.76
2019-03-02T02:16:05.721Z,6.70
2019-03-02T02:17:01.911Z,6.80
2019-03-02T02:18:01.862Z,6.67
2019-03-02T02:19:02.536Z,6.67
2019-03-02T02:20:01.794Z,6.77
2019-03-02T02:21:01.757Z,6.80
2019-03-02T02:22:02.154Z,6.76
2019-03-02T02:23:01.651Z,6.70
2019-03-02T02:24:01.612Z,6.73
2019-03-02T02:25:02.051Z,6.66
2019-03-02T02:26:01.545Z,6.61
2019-03-02T02:27:01.497Z,6.66
2019-03-02T02:28:01.425Z,6.64
2019-03-02T02:29:04.620Z,6.64
2019-03-02T02:30:01.372Z,6.56
2019-03-02T02:31:01.718Z,6.71
2019-03-02T02:32:01.261Z,6.70
2019-03-02T02:33:04.199Z,6.73
2019-03-02T02:34:01.151Z,6.70
2019-03-02T02:35:02.668Z,6.70
2019-03-02T02:36:01.104Z,6.55
2019-03-02T02:37:01.048Z,6.64
2019-03-02T02:38:01.005Z,6.64
2019-03-02T02:39:00.953Z,6.67
2019-03-02T02:40:00.918Z,6.66
2019-03-02T02:41:00.898Z,6.59
2019-03-02T02:42:05.311Z,6.64
2019-03-02T02:43:00.777Z,6.64
2019-03-02T02:44:00.739Z,6.59
2019-03-02T02:45:00.689Z,6.58
2019-03-02T02:46:00.663Z,6.64
2019-03-02T02:47:00.613Z,6.64
2019-03-02T02:48:00.561Z,6.67
2019-03-02T02:49:05.253Z,6.66
2019-03-02T02:50:00.468Z,6.64
2019-03-02T02:51:04.476Z,6.61
2019-03-02T02:52:00.398Z,6.62
2019-03-02T02:53:06.215Z,6.67
2019-03-02T02:54:00.275Z,6.69
2019-03-02T02:55:02.298Z,6.64
2019-03-02T02:56:00.238Z,6.64
2019-03-02T02:57:00.600Z,6.64
2019-03-02T02:58:00.133Z,6.58
2019-03-02T02:59:01.596Z,6.64
2019-03-02T03:00:00.026Z,6.66
2019-03-02T03:00:59.972Z,6.59
2019-03-02T03:01:59.936Z,6.61
2019-03-02T03:02:59.922Z,6.64
2019-03-02T03:04:00.946Z,6.58
2019-03-02T03:04:59.802Z,6.64
2019-03-02T03:05:59.778Z,6.62
2019-03-02T03:06:59.717Z,6.56
2019-03-02T03:07:59.679Z,6.61
2019-03-02T03:08:59.673Z,6.58
2019-03-02T03:09:59.608Z,6.66
2019-03-02T03:11:01.565Z,6.64
2019-03-02T03:11:59.497Z,6.59
2019-03-02T03:13:02.197Z,6.59
2019-03-02T03:13:59.435Z,6.56
2019-03-02T03:14:59.692Z,6.54
2019-03-02T03:15:59.321Z,6.64
2019-03-02T03:16:59.294Z,6.58
2019-03-02T03:17:59.259Z,6.61
2019-03-02T03:18:59.190Z,6.62
2019-03-02T03:19:59.182Z,6.62
2019-03-02T03:20:59.115Z,6.66
2019-03-02T03:22:02.348Z,6.66
2019-03-02T03:22:59.034Z,6.61
2019-03-02T03:24:03.616Z,6.71
2019-03-02T03:24:58.941Z,6.66
2019-03-02T03:25:58.927Z,6.62
2019-03-02T03:26:58.836Z,6.55
2019-03-02T03:27:58.831Z,6.67
2019-03-02T03:28:58.774Z,6.70
2019-03-02T03:29:58.736Z,6.66
2019-03-02T03:30:58.700Z,6.59
2019-03-02T03:32:07.633Z,6.66
2019-03-02T03:32:59.816Z,6.61
2019-03-02T03:33:58.561Z,6.69
2019-03-02T03:34:58.495Z,6.62
2019-03-02T03:35:58.438Z,6.62
2019-03-02T03:36:58.418Z,6.64
2019-03-02T03:37:58.357Z,6.69
2019-03-02T03:39:02.651Z,6.69
2019-03-02T03:39:58.279Z,6.62
2019-03-02T03:41:00.220Z,6.69
2019-03-02T03:41:58.253Z,6.67
2019-03-02T03:43:02.968Z,6.67
2019-03-02T03:43:58.111Z,6.76
2019-03-02T03:44:59.935Z,6.66
2019-03-02T03:45:58.016Z,6.69
2019-03-02T03:47:00.647Z,6.66
2019-03-02T03:47:57.961Z,6.71
2019-03-02T03:48:58.054Z,6.69
2019-03-02T03:49:57.833Z,6.80
2019-03-02T03:50:57.787Z,6.67
2019-03-02T03:51:57.755Z,6.70
2019-03-02T03:52:57.701Z,6.76
2019-03-02T03:54:01.643Z,6.71
2019-03-02T03:54:57.649Z,6.80
2019-03-02T03:56:03.453Z,6.80
2019-03-02T03:56:57.521Z,6.84
2019-03-02T03:58:00.540Z,6.71
2019-03-02T03:58:57.480Z,6.84
2019-03-02T03:59:58.625Z,6.74
2019-03-02T04:00:57.384Z,6.74
2019-03-02T04:01:58.442Z,6.85
2019-03-02T04:02:57.271Z,6.85
2019-03-02T04:03:57.218Z,6.88
2019-03-02T04:04:57.193Z,6.80
2019-03-02T04:05:57.162Z,6.74
2019-03-02T04:07:01.429Z,6.85
2019-03-02T04:07:57.058Z,6.81
2019-03-02T04:08:56.995Z,6.80
2019-03-02T04:09:56.966Z,6.89
2019-03-02T04:11:00.096Z,6.87
2019-03-02T04:11:56.885Z,6.84
2019-03-02T04:13:03.685Z,6.81
2019-03-02T04:13:56.805Z,6.88
2019-03-02T04:15:01.087Z,6.84
2019-03-02T04:15:56.722Z,6.84
2019-03-02T04:17:00.626Z,6.81
2019-03-02T04:17:56.610Z,6.77
2019-03-02T04:18:57.896Z,6.77
2019-03-02T04:19:56.556Z,6.74
2019-03-02T04:20:56.513Z,6.74
2019-03-02T04:21:56.467Z,6.79
2019-03-02T04:22:56.385Z,6.74
2019-03-02T04:24:01.672Z,6.69
2019-03-02T04:24:56.315Z,6.76
2019-03-02T04:25:58.013Z,6.69
2019-03-02T04:26:56.254Z,6.79
2019-03-02T04:27:56.330Z,6.80
2019-03-02T04:28:56.140Z,6.85
2019-03-02T04:29:56.107Z,6.84
2019-03-02T04:30:56.063Z,6.74
2019-03-02T04:31:56.008Z,6.81
2019-03-02T04:32:55.983Z,6.81
2019-03-02T04:33:55.919Z,6.67
2019-03-02T04:34:57.714Z,6.71
2019-03-02T04:35:55.823Z,6.69
2019-03-02T04:36:55.781Z,6.74
2019-03-02T04:38:00.223Z,6.84
2019-03-02T04:38:55.693Z,6.84
2019-03-02T04:39:57.529Z,6.74
2019-03-02T04:40:55.599Z,6.69
2019-03-02T04:41:55.562Z,6.69
2019-03-02T04:42:55.535Z,6.70
2019-03-02T04:43:55.463Z,6.73
2019-03-02T04:44:55.430Z,6.64
2019-03-02T04:45:55.397Z,6.69
2019-03-02T04:46:55.351Z,6.69
2019-03-02T04:47:55.331Z,6.70
2019-03-02T04:48:55.267Z,6.81
2019-03-02T04:49:55.217Z,6.73
2019-03-02T04:50:55.166Z,6.70
2019-03-02T04:51:55.128Z,6.77
2019-03-02T04:52:55.083Z,6.87
2019-03-02T04:53:58.084Z,6.80
2019-03-02T04:54:54.991Z,6.84
2019-03-02T04:55:54.948Z,6.71
2019-03-02T04:56:55.565Z,6.79
2019-03-02T04:57:54.876Z,6.84
2019-03-02T04:58:54.840Z,6.73
2019-03-02T04:59:56.736Z,6.69
2019-03-02T05:00:54.734Z,6.71
2019-03-02T05:01:54.672Z,6.69
2019-03-02T05:02:55.186Z,6.70
2019-03-02T05:03:57.267Z,6.74
2019-03-02T05:04:54.559Z,6.73
2019-03-02T05:05:54.500Z,6.67
2019-03-02T05:06:55.667Z,6.73
2019-03-02T05:07:54.434Z,6.80
2019-03-02T05:08:54.377Z,6.70
2019-03-02T05:09:54.374Z,6.71
2019-03-02T05:10:54.311Z,6.73
2019-03-02T05:11:54.265Z,6.70
2019-03-02T05:12:54.195Z,6.74
2019-03-02T05:13:54.171Z,6.85
2019-03-02T05:14:54.134Z,6.67
2019-03-02T05:15:54.074Z,6.69
2019-03-02T05:16:54.034Z,6.73
2019-03-02T05:17:53.982Z,6.70
2019-03-02T05:18:54.776Z,6.73
2019-03-02T05:19:53.925Z,6.73
2019-03-02T05:20:53.875Z,6.71
2019-03-02T05:21:53.822Z,6.76
2019-03-02T05:22:54.722Z,6.66
2019-03-02T05:23:53.745Z,6.64
2019-03-02T05:24:53.688Z,6.70
2019-03-02T05:25:54.609Z,6.61
2019-03-02T05:26:53.598Z,6.64
2019-03-02T05:27:53.546Z,6.73
2019-03-02T05:28:53.515Z,6.66
2019-03-02T05:29:54.504Z,6.69
2019-03-02T05:30:53.447Z,6.66
2019-03-02T05:31:53.378Z,6.62
2019-03-02T05:32:53.323Z,6.64
2019-03-02T05:33:53.282Z,6.69
2019-03-02T05:34:53.237Z,6.64
2019-03-02T05:35:53.221Z,6.70
2019-03-02T05:36:53.163Z,6.64
2019-03-02T05:37:53.108Z,6.71
2019-03-02T05:38:53.062Z,6.67
2019-03-02T05:39:53.766Z,6.74
2019-03-02T05:40:53.007Z,6.73
2019-03-02T05:41:53.260Z,6.71
2019-03-02T05:42:52.926Z,6.71
2019-03-02T05:43:52.840Z,6.77
2019-03-02T05:44:52.803Z,6.74
2019-03-02T05:45:52.757Z,6.70
2019-03-02T05:46:52.724Z,6.62
2019-03-02T05:47:52.663Z,6.71
2019-03-02T05:48:52.651Z,6.71
2019-03-02T05:49:54.765Z,6.66
2019-03-02T05:50:52.534Z,6.70
2019-03-02T05:51:52.487Z,6.70
2019-03-02T05:52:54.315Z,6.64
2019-03-02T05:53:52.404Z,6.67
2019-03-02T05:54:52.385Z,6.64
2019-03-02T05:55:53.611Z,6.69
2019-03-02T05:56:52.271Z,6.66
2019-03-02T05:57:52.252Z,6.64
2019-03-02T05:58:52.211Z,6.66
2019-03-02T05:59:52.166Z,6.64
2019-03-02T06:00:52.096Z,6.71
2019-03-02T06:01:52.067Z,6.64
2019-03-02T06:02:52.006Z,6.62
2019-03-02T06:03:51.990Z,6.56
2019-03-02T06:04:53.657Z,6.59
2019-03-02T06:05:51.869Z,6.62
2019-03-02T06:06:54.160Z,6.51
2019-03-02T06:07:53.808Z,6.66
2019-03-02T06:08:51.763Z,6.69
2019-03-02T06:09:51.760Z,6.69
2019-03-02T06:10:51.657Z,6.69
2019-03-02T06:11:51.614Z,6.58
2019-03-02T06:12:52.996Z,6.73
2019-03-02T06:13:51.551Z,6.62
2019-03-02T06:14:51.481Z,6.70
2019-03-02T06:15:51.472Z,6.74
2019-03-02T06:16:53.813Z,6.71
2019-03-02T06:17:51.338Z,6.79
2019-03-02T06:18:51.332Z,6.67
2019-03-02T06:19:51.284Z,6.84
2019-03-02T06:20:51.255Z,6.71
2019-03-02T06:21:51.184Z,6.76
2019-03-02T06:22:52.386Z,6.70
2019-03-02T06:23:51.083Z,6.71
2019-03-02T06:24:51.057Z,6.80
2019-03-02T06:25:55.150Z,6.81
2019-03-02T06:26:50.976Z,6.74
2019-03-02T06:27:50.913Z,6.76
2019-03-02T06:28:50.861Z,6.80
2019-03-02T06:29:50.843Z,6.85
2019-03-02T06:30:50.776Z,6.84
2019-03-02T06:31:53.793Z,6.81
2019-03-02T06:32:50.699Z,6.73
2019-03-02T06:33:50.660Z,6.80
2019-03-02T06:34:51.959Z,6.80
2019-03-02T06:35:50.571Z,6.80
2019-03-02T06:36:50.519Z,6.85
2019-03-02T06:37:52.885Z,6.85
2019-03-02T06:38:50.429Z,6.71
2019-03-02T06:39:50.407Z,6.81
2019-03-02T06:40:50.345Z,6.81
2019-03-02T06:41:50.301Z,6.80
2019-03-02T06:42:50.262Z,6.77
2019-03-02T06:43:50.205Z,6.88
2019-03-02T06:44:50.205Z,6.81
2019-03-02T06:45:50.150Z,6.71
2019-03-02T06:46:50.082Z,6.81
2019-03-02T06:47:50.036Z,6.66
2019-03-02T06:48:49.981Z,6.73
2019-03-02T06:49:53.275Z,6.80
2019-03-02T06:50:49.915Z,6.71
2019-03-02T06:51:49.856Z,6.80
2019-03-02T06:52:49.827Z,6.70
2019-03-02T06:53:49.788Z,6.76
2019-03-02T06:54:49.762Z,6.71
2019-03-02T06:55:49.707Z,6.74
2019-03-02T06:56:57.503Z,6.71
2019-03-02T06:57:51.292Z,6.79
2019-03-02T06:58:49.572Z,6.76
2019-03-02T06:59:49.521Z,6.69
2019-03-02T07:00:49.722Z,6.81
2019-03-02T07:01:49.417Z,6.84
2019-03-02T07:02:49.370Z,6.91
2019-03-02T07:03:49.320Z,6.91
2019-03-02T07:04:49.300Z,7.09
2019-03-02T07:05:49.245Z,6.98
2019-03-02T07:06:49.240Z,6.88
2019-03-02T07:07:49.161Z,6.81
2019-03-02T07:08:49.213Z,6.95
2019-03-02T07:09:49.056Z,6.84
2019-03-02T07:10:49.040Z,6.92
2019-03-02T07:11:49.001Z,7.02
2019-03-02T07:12:48.939Z,6.97
2019-03-02T07:13:48.880Z,6.95
2019-03-02T07:14:48.854Z,7.05
2019-03-02T07:15:48.789Z,7.15
2019-03-02T07:16:52.205Z,7.30
2019-03-02T07:17:48.713Z,7.27
2019-03-02T07:18:48.722Z,7.32
2019-03-02T07:19:51.790Z,7.27
2019-03-02T07:20:48.605Z,7.10
2019-03-02T07:21:48.559Z,7.21
2019-03-02T07:22:51.927Z,7.09
2019-03-02T07:23:48.469Z,7.02
2019-03-02T07:24:48.400Z,7.21
2019-03-02T07:25:48.369Z,7.20
2019-03-02T07:26:51.576Z,7.37
2019-03-02T07:27:48.298Z,7.15
2019-03-02T07:28:48.264Z,7.31
2019-03-02T07:29:49.742Z,7.12
2019-03-02T07:30:48.155Z,7.23
2019-03-02T07:31:48.129Z,7.17
2019-03-02T07:32:48.057Z,7.12
2019-03-02T07:33:48.017Z,7.16
2019-03-02T07:34:47.969Z,7.23
2019-03-02T07:35:47.939Z,7.21
2019-03-02T07:36:47.954Z,7.28
2019-03-02T07:37:47.911Z,7.23
2019-03-02T07:38:47.793Z,7.39
2019-03-02T07:39:47.763Z,7.37
2019-03-02T07:40:47.706Z,7.34
2019-03-02T07:41:47.659Z,7.32
2019-03-02T07:42:47.634Z,7.23
2019-03-02T07:43:47.659Z,7.27
2019-03-02T07:44:47.514Z,7.24
2019-03-02T07:45:47.504Z,7.20
2019-03-02T07:46:47.918Z,7.27
2019-03-02T07:47:47.435Z,7.27
2019-03-02T07:48:47.367Z,7.30
2019-03-02T07:49:49.822Z,7.37
2019-03-02T07:50:47.292Z,7.24
2019-03-02T07:51:47.232Z,7.42
2019-03-02T07:52:49.738Z,7.39
2019-03-02T07:53:47.131Z,7.28
2019-03-02T07:54:57.705Z,7.28
2019-03-02T07:55:47.046Z,7.28
2019-03-02T07:56:47.014Z,7.27
2019-03-02T07:57:46.977Z,7.25
2019-03-02T07:58:46.930Z,7.30
2019-03-02T07:59:46.868Z,7.40
2019-03-02T08:00:46.831Z,7.35
2019-03-02T08:01:48.839Z,7.34
2019-03-02T08:02:46.745Z,7.28
2019-03-02T08:03:46.728Z,7.30
2019-03-02T08:04:46.672Z,7.34
2019-03-02T08:05:46.923Z,7.34
2019-03-02T08:06:46.551Z,7.28
2019-03-02T08:07:46.503Z,7.27
2019-03-02T08:08:49.219Z,7.25
2019-03-02T08:09:46.489Z,7.32
2019-03-02T08:10:46.427Z,7.43
2019-03-02T08:11:48.961Z,7.39
2019-03-02T08:12:46.311Z,7.32
2019-03-02T08:13:46.255Z,7.40
2019-03-02T08:14:47.913Z,7.32
2019-03-02T08:15:46.572Z,7.42
2019-03-02T08:16:46.112Z,7.48
2019-03-02T08:17:49.166Z,7.35
2019-03-02T08:18:46.028Z,7.35
2019-03-02T08:19:48.550Z,7.39
2019-03-02T08:20:45.960Z,7.45
2019-03-02T08:21:45.925Z,7.40
2019-03-02T08:22:46.341Z,7.39
2019-03-02T08:23:45.820Z,7.37
2019-03-02T08:24:45.792Z,7.40
2019-03-02T08:25:45.722Z,7.43
2019-03-02T08:26:45.679Z,7.55
2019-03-02T08:27:45.642Z,7.52
2019-03-02T08:28:45.957Z,7.39
2019-03-02T08:29:45.592Z,7.42
2019-03-02T08:30:45.521Z,7.50
2019-03-02T08:31:46.764Z,7.48
2019-03-02T08:32:45.533Z,7.52
2019-03-02T08:33:46.124Z,7.49
2019-03-02T08:34:46.392Z,7.53
2019-03-02T08:35:45.338Z,7.58
2019-03-02T08:36:45.296Z,7.53
2019-03-02T08:37:45.366Z,7.61
2019-03-02T08:38:45.433Z,7.58
2019-03-02T08:39:46.560Z,7.57
2019-03-02T08:40:45.108Z,7.63
2019-03-02T08:41:45.043Z,7.55
2019-03-02T08:42:44.992Z,7.57
2019-03-02T08:43:44.987Z,7.52
2019-03-02T08:44:44.942Z,7.49
2019-03-02T08:45:44.893Z,7.55
2019-03-02T08:46:44.843Z,7.67
2019-03-02T08:47:44.802Z,7.63
2019-03-02T08:48:44.750Z,7.68
2019-03-02T08:49:44.706Z,7.75
2019-03-02T08:50:45.658Z,7.74
2019-03-02T08:51:44.597Z,7.74
2019-03-02T08:52:44.577Z,7.83
2019-03-02T08:53:44.525Z,7.83
2019-03-02T08:54:44.498Z,7.72
2019-03-02T08:55:44.456Z,7.89
2019-03-02T08:56:47.753Z,7.69
2019-03-02T08:57:44.353Z,7.68
2019-03-02T08:58:44.341Z,7.69
2019-03-02T08:59:44.301Z,7.74
2019-03-02T09:00:44.250Z,7.74
2019-03-02T09:01:44.229Z,7.69
2019-03-02T09:02:44.127Z,7.77
2019-03-02T09:03:44.098Z,7.61
2019-03-02T09:04:47.342Z,7.72
2019-03-02T09:05:50.673Z,7.72
2019-03-02T09:06:43.995Z,7.68
2019-03-02T09:07:44.436Z,7.69
2019-03-02T09:08:43.883Z,7.71
2019-03-02T09:09:43.828Z,7.90
2019-03-02T09:10:45.853Z,7.87
2019-03-02T09:11:44.546Z,7.83
2019-03-02T09:12:43.701Z,7.74
2019-03-02T09:13:43.690Z,7.74
2019-03-02T09:14:45.064Z,7.82
2019-03-02T09:15:43.567Z,7.82
2019-03-02T09:16:43.528Z,7.80
2019-03-02T09:17:43.474Z,7.82
2019-03-02T09:18:45.788Z,7.80
2019-03-02T09:19:43.389Z,7.83
2019-03-02T09:20:43.362Z,7.82
2019-03-02T09:21:44.680Z,7.80
2019-03-02T09:22:43.273Z,7.80
2019-03-02T09:23:43.261Z,7.83
2019-03-02T09:24:45.808Z,7.72
2019-03-02T09:25:43.144Z,7.80
2019-03-02T09:26:43.079Z,7.85
2019-03-02T09:27:43.111Z,7.89
2019-03-02T09:28:43.026Z,7.93
2019-03-02T09:29:42.943Z,7.87
2019-03-02T09:30:42.897Z,7.98
2019-03-02T09:31:42.878Z,8.05
2019-03-02T09:32:42.846Z,8.08
2019-03-02T09:33:42.804Z,8.05
2019-03-02T09:34:42.735Z,8.15
2019-03-02T09:35:42.694Z,8.22
2019-03-02T09:36:43.506Z,8.25
2019-03-02T09:37:43.888Z,8.29
2019-03-02T09:38:42.592Z,8.41
2019-03-02T09:39:42.552Z,8.45
2019-03-02T09:40:45.901Z,8.43
2019-03-02T09:41:42.440Z,8.58
2019-03-02T09:42:42.390Z,8.61
2019-03-02T09:43:42.373Z,8.66
2019-03-02T09:44:42.331Z,8.59
2019-03-02T09:45:44.750Z,8.74
2019-03-02T09:46:42.208Z,8.71
2019-03-02T09:47:43.968Z,8.74
2019-03-02T09:48:42.126Z,8.83
2019-03-02T09:49:42.108Z,8.89
2019-03-02T09:50:42.058Z,8.89
2019-03-02T09:51:44.789Z,9.02
2019-03-02T09:52:41.993Z,8.99
2019-03-02T09:53:43.594Z,9.13
2019-03-02T09:54:41.870Z,9.01
2019-03-02T09:55:41.905Z,9.05
2019-03-02T09:56:41.788Z,9.02
2019-03-02T09:57:47.311Z,9.08
2019-03-02T09:58:41.713Z,9.11
2019-03-02T09:59:41.970Z,9.13
2019-03-02T10:00:41.628Z,9.26
2019-03-02T10:01:41.611Z,9.26
2019-03-02T10:02:41.575Z,9.17
2019-03-02T10:03:41.482Z,9.24
2019-03-02T10:04:41.452Z,9.17
2019-03-02T10:05:41.419Z,9.39
2019-03-02T10:06:41.392Z,9.36
2019-03-02T10:07:41.329Z,9.39
2019-03-02T10:08:42.480Z,9.48
2019-03-02T10:09:41.250Z,9.36
2019-03-02T10:10:41.219Z,9.38
2019-03-02T10:11:41.183Z,9.35
2019-03-02T10:12:41.123Z,9.39
2019-03-02T10:13:41.071Z,9.47
2019-03-02T10:14:41.023Z,9.61
2019-03-02T10:15:40.993Z,9.60
2019-03-02T10:16:40.939Z,9.78
2019-03-02T10:17:40.921Z,9.76
2019-03-02T10:18:40.883Z,9.57
2019-03-02T10:19:40.851Z,9.66
2019-03-02T10:20:42.585Z,9.68
2019-03-02T10:21:43.591Z,9.69
2019-03-02T10:22:40.724Z,9.60
2019-03-02T10:23:42.046Z,9.57
2019-03-02T10:24:40.640Z,9.61
2019-03-02T10:25:40.600Z,9.60
2019-03-02T10:26:43.461Z,9.58
2019-03-02T10:27:40.531Z,9.60
2019-03-02T10:28:40.452Z,9.71
2019-03-02T10:29:40.419Z,9.69
2019-03-02T10:30:40.406Z,9.74
2019-03-02T10:31:40.485Z,9.89
2019-03-02T10:32:40.294Z,10.02
2019-03-02T10:33:40.312Z,10.02
2019-03-02T10:34:41.932Z,10.01
2019-03-02T10:35:40.153Z,10.01
2019-03-02T10:36:40.138Z,9.94
2019-03-02T10:37:42.573Z,9.93
2019-03-02T10:38:40.017Z,9.96
2019-03-02T10:39:40.031Z,10.02
2019-03-02T10:40:41.613Z,10.12
2019-03-02T10:41:39.907Z,10.14
2019-03-02T10:42:39.867Z,10.26
2019-03-02T10:43:42.759Z,10.08
2019-03-02T10:44:39.811Z,10.17
2019-03-02T10:45:39.741Z,10.30
2019-03-02T10:46:39.689Z,10.29
2019-03-02T10:47:39.656Z,10.36
2019-03-02T10:48:39.638Z,10.40
2019-03-02T10:49:39.570Z,10.33
2019-03-02T10:50:39.553Z,10.44
2019-03-02T10:51:39.494Z,10.44
2019-03-02T10:52:39.442Z,10.48
2019-03-02T10:53:39.417Z,10.56
2019-03-02T10:54:39.404Z,10.60
2019-03-02T10:55:39.335Z,10.61
2019-03-02T10:56:39.275Z,10.76
2019-03-02T10:57:39.255Z,10.76
2019-03-02T10:58:39.874Z,10.71
2019-03-02T10:59:39.144Z,10.74
2019-03-02T11:00:39.129Z,10.68
2019-03-02T11:01:39.857Z,10.60
2019-03-02T11:02:39.041Z,10.61
2019-03-02T11:03:39.030Z,10.59
2019-03-02T11:04:41.040Z,10.71
2019-03-02T11:05:38.952Z,10.82
2019-03-02T11:06:38.867Z,10.86
2019-03-02T11:07:38.871Z,10.70
2019-03-02T11:08:38.801Z,10.82
2019-03-02T11:09:39.749Z,10.68
2019-03-02T11:10:38.741Z,10.82
2019-03-02T11:11:38.671Z,10.96
2019-03-02T11:12:39.839Z,11.04
2019-03-02T11:13:38.580Z,11.14
2019-03-02T11:14:38.555Z,11.22
2019-03-02T11:15:39.700Z,11.06
2019-03-02T11:16:38.483Z,11.21
2019-03-02T11:17:39.471Z,11.40
2019-03-02T11:18:38.382Z,11.57
2019-03-02T11:19:38.349Z,11.85
2019-03-02T11:20:38.293Z,12.02
2019-03-02T11:21:38.289Z,12.19
2019-03-02T11:22:38.737Z,12.21
2019-03-02T11:23:38.174Z,12.21
2019-03-02T11:24:38.139Z,12.23
2019-03-02T11:25:38.082Z,12.16
2019-03-02T11:26:38.056Z,12.20
2019-03-02T11:27:38.049Z,12.19
2019-03-02T11:28:37.987Z,12.31
2019-03-02T11:29:37.990Z,12.41
2019-03-02T11:30:37.905Z,12.52
2019-03-02T11:31:37.868Z,12.62
2019-03-02T11:32:37.856Z,12.50
2019-03-02T11:33:37.784Z,12.42
2019-03-02T11:34:37.755Z,12.50
2019-03-02T11:35:38.549Z,12.46
2019-03-02T11:36:37.698Z,12.27
2019-03-02T11:37:37.618Z,12.35
2019-03-02T11:38:40.386Z,12.38
2019-03-02T11:39:37.540Z,12.60
2019-03-02T11:40:37.512Z,12.79
2019-03-02T11:41:37.472Z,12.78
2019-03-02T11:42:37.451Z,12.70
2019-03-02T11:43:37.379Z,12.60
2019-03-02T11:44:37.357Z,12.56
2019-03-02T11:45:38.411Z,12.54
2019-03-02T11:46:37.268Z,12.65
2019-03-02T11:47:37.351Z,12.53
2019-03-02T11:48:37.207Z,12.46
2019-03-02T11:49:38.551Z,12.54
2019-03-02T11:50:37.102Z,12.62
2019-03-02T11:51:37.070Z,12.53
2019-03-02T11:52:38.653Z,12.56
2019-03-02T11:53:37.028Z,12.42
2019-03-02T11:54:36.976Z,12.28
2019-03-02T11:55:36.937Z,12.42
2019-03-02T11:56:38.996Z,12.38
2019-03-02T11:57:36.837Z,12.13
2019-03-02T11:58:36.972Z,11.95
2019-03-02T11:59:37.569Z,11.91
2019-03-02T12:00:38.022Z,12.05
2019-03-02T12:01:36.670Z,12.21
2019-03-02T12:02:36.633Z,12.16
2019-03-02T12:03:39.027Z,12.17
2019-03-02T12:04:36.594Z,12.13
2019-03-02T12:05:36.527Z,12.24
2019-03-02T12:06:37.818Z,12.14
2019-03-02T12:07:36.450Z,12.10
2019-03-02T12:08:36.401Z,12.21
2019-03-02T12:09:36.360Z,12.29
2019-03-02T12:10:36.357Z,12.31
2019-03-02T12:11:36.290Z,12.34
2019-03-02T12:12:36.268Z,12.16
2019-03-02T12:13:36.220Z,12.13
2019-03-02T12:14:36.184Z,12.31
2019-03-02T12:15:36.120Z,12.39
2019-03-02T12:16:38.169Z,12.45
2019-03-02T12:17:37.918Z,12.64
2019-03-02T12:18:36.015Z,12.54
2019-03-02T12:19:35.992Z,12.53
2019-03-02T12:20:35.938Z,12.68
2019-03-02T12:21:35.891Z,12.71
2019-03-02T12:22:35.862Z,12.85
2019-03-02T12:23:37.601Z,12.75
2019-03-02T12:24:35.808Z,12.83
2019-03-02T12:25:36.524Z,12.85
2019-03-02T12:26:35.701Z,12.97
2019-03-02T12:27:35.654Z,12.87
2019-03-02T12:28:36.314Z,13.00
2019-03-02T12:29:35.573Z,12.97
2019-03-02T12:30:35.561Z,13.07
2019-03-02T12:31:35.510Z,13.29
2019-03-02T12:32:35.452Z,13.33
2019-03-02T12:33:35.432Z,13.19
2019-03-02T12:34:35.712Z,12.95
2019-03-02T12:35:40.409Z,12.83
2019-03-02T12:36:35.307Z,12.92
2019-03-02T12:37:37.198Z,13.03
2019-03-02T12:38:35.252Z,13.08
2019-03-02T12:39:35.192Z,13.08
2019-03-02T12:40:36.248Z,13.08
2019-03-02T12:41:35.122Z,13.10
2019-03-02T12:42:35.103Z,13.10
2019-03-02T12:43:35.031Z,13.01
2019-03-02T12:44:35.009Z,13.05
2019-03-02T12:45:35.046Z,13.04
2019-03-02T12:46:34.950Z,13.01
2019-03-02T12:47:34.907Z,13.05
2019-03-02T12:48:34.854Z,13.05
2019-03-02T12:49:34.814Z,13.14
2019-03-02T12:50:34.801Z,13.25
2019-03-02T12:51:35.183Z,13.15
2019-03-02T12:52:34.697Z,13.19
2019-03-02T12:53:34.660Z,13.05
2019-03-02T12:54:34.624Z,12.79
2019-03-02T12:55:34.576Z,12.72
2019-03-02T12:56:34.547Z,12.79
2019-03-02T12:57:34.553Z,12.65
2019-03-02T12:58:34.498Z,12.78
2019-03-02T12:59:35.903Z,12.78
2019-03-02T13:00:34.403Z,12.72
2019-03-02T13:01:37.742Z,12.72
2019-03-02T13:02:34.357Z,12.67
2019-03-02T13:03:34.663Z,12.52
2019-03-02T13:04:34.251Z,12.64
2019-03-02T13:05:36.299Z,12.67
2019-03-02T13:06:35.921Z,12.65
2019-03-02T13:07:34.126Z,12.83
2019-03-02T13:08:35.004Z,12.82
2019-03-02T13:09:36.959Z,12.97
2019-03-02T13:10:34.021Z,13.04
2019-03-02T13:11:33.975Z,12.96
2019-03-02T13:12:33.934Z,12.92